Time;durP1;ratioP1;P1;durP2;ratioP2;P2;SDS_P1;SDS_P2;PMS_P1;PMS_P2;Temp;Humidity;BMP_temperature;BMP_pressure;BME280_temperature;BME280_humidity;BME280_pressure;Samples;Min_cycle;Max_cycle;Signal;HPM_P1;HPM_P2
2023/02/15 00:01:32;;;;;;;55.33;11.82;;;3.10;97.10;;;;;;4980819;28;87484;-69
2023/02/15 00:03:58;;;;;;;74.57;11.82;;;3.10;97.20;;;;;;4983614;28;86664;-70
2023/02/15 00:06:24;;;;;;;89.05;12.95;;;3.10;97.20;;;;;;4977785;28;87513;-70
2023/02/15 00:08:49;;;;;;;113.45;12.00;;;3.10;96.80;;;;;;4978169;28;88045;-70
2023/02/15 00:11:39;;;;;;;66.03;12.07;;;3.00;96.90;;;;;;4978581;28;88552;-69
2023/02/15 00:14:15;;;;;;;53.20;10.98;;;3.10;98.00;;;;;;4978459;28;87405;-70
2023/02/15 00:16:42;;;;;;;78.53;11.30;;;3.10;97.10;;;;;;4977931;28;88194;-69
2023/02/15 00:19:10;;;;;;;59.95;11.45;;;3.10;96.90;;;;;;4982921;28;87836;-69
2023/02/15 00:21:36;;;;;;;56.20;11.55;;;3.10;97.00;;;;;;4986046;28;87393;-69
2023/02/15 00:24:04;;;;;;;61.28;11.55;;;3.10;96.70;;;;;;4998055;28;87447;-69
2023/02/15 00:26:30;;;;;;;66.53;11.27;;;3.10;96.70;;;;;;4985542;28;88140;-70
2023/02/15 00:28:58;;;;;;;61.00;11.00;;;3.10;96.90;;;;;;4988890;28;87366;-70
2023/02/15 00:31:24;;;;;;;65.50;11.23;;;3.10;96.70;;;;;;4998040;28;87510;-70
2023/02/15 00:33:50;;;;;;;50.33;11.20;;;3.10;96.70;;;;;;4998385;28;87199;-70
2023/02/15 00:36:15;;;;;;;50.80;11.65;;;3.10;96.50;;;;;;4991825;28;88338;-70
2023/02/15 00:38:41;;;;;;;70.20;12.05;;;3.10;96.90;;;;;;4990183;28;88839;-71
2023/02/15 00:41:08;;;;;;;44.53;11.18;;;3.10;97.00;;;;;;4980776;28;87508;-68
2023/02/15 00:43:35;;;;;;;67.95;13.38;;;3.00;96.90;;;;;;4982198;28;87267;-68
2023/02/15 00:46:02;;;;;;;98.47;11.25;;;3.00;97.10;;;;;;4976549;28;88056;-68
2023/02/15 00:48:28;;;;;;;116.93;14.38;;;3.00;97.20;;;;;;4977476;28;87405;-70
2023/02/15 00:50:56;;;;;;;71.97;13.43;;;3.00;97.40;;;;;;4990681;28;87201;-70
2023/02/15 00:53:22;;;;;;;90.93;12.43;;;3.00;98.00;;;;;;4987849;28;86633;-70
2023/02/15 00:55:49;;;;;;;79.40;12.80;;;3.00;97.60;;;;;;4976480;28;89027;-70
2023/02/15 00:58:16;;;;;;;59.53;12.65;;;3.10;97.40;;;;;;4976715;28;88853;-70
2023/02/15 01:00:44;;;;;;;50.15;12.40;;;3.00;97.70;;;;;;4978162;28;88620;-70
2023/02/15 01:03:10;;;;;;;43.90;11.55;;;3.10;97.80;;;;;;4979924;28;87220;-70
2023/02/15 01:05:36;;;;;;;61.92;11.27;;;3.10;97.70;;;;;;4976154;28;88190;-70
2023/02/15 01:08:02;;;;;;;69.95;12.35;;;3.10;97.90;;;;;;4968809;28;87564;-70
2023/02/15 01:10:28;;;;;;;136.05;13.05;;;3.10;97.70;;;;;;4982333;28;87474;-70
2023/02/15 01:12:54;;;;;;;70.45;11.95;;;3.00;97.90;;;;;;4990082;28;87397;-70
2023/02/15 01:15:20;;;;;;;70.63;12.55;;;3.00;98.20;;;;;;4995424;28;87957;-70
2023/02/15 01:17:51;;;;;;;72.20;12.23;;;3.10;98.10;;;;;;4977661;28;87891;-69
2023/02/15 01:20:27;;;;;;;60.67;11.75;;;3.10;97.80;;;;;;4977118;28;87397;-68
2023/02/15 01:22:53;;;;;;;69.18;11.65;;;3.10;97.50;;;;;;4982120;28;87364;-70
2023/02/15 01:25:21;;;;;;;123.90;12.80;;;3.10;97.60;;;;;;4976126;28;89174;-70
2023/02/15 01:27:47;;;;;;;82.40;13.88;;;3.00;97.30;;;;;;4980271;28;90128;-70
2023/02/15 01:30:14;;;;;;;123.53;12.80;;;3.00;97.60;;;;;;4997338;28;87563;-70
2023/02/15 01:32:41;;;;;;;82.22;12.07;;;3.00;97.50;;;;;;4991855;28;87305;-70
2023/02/15 01:35:07;;;;;;;56.03;11.82;;;3.00;97.50;;;;;;4990779;28;90109;-70
2023/02/15 01:37:33;;;;;;;77.20;12.02;;;3.00;97.70;;;;;;4976577;28;87316;-70
2023/02/15 01:40:00;;;;;;;154.52;12.57;;;2.90;97.70;;;;;;4978105;28;87525;-69
2023/02/15 01:42:27;;;;;;;103.70;12.48;;;2.90;97.60;;;;;;4977476;28;86320;-71
2023/02/15 01:45:02;;;;;;;128.68;13.25;;;2.90;97.70;;;;;;4985853;28;87907;-69
2023/02/15 01:47:36;;;;;;;127.45;12.30;;;2.90;97.90;;;;;;4983826;28;88458;-69
2023/02/15 01:50:23;;;;;;;72.93;11.48;;;2.80;98.00;;;;;;4977571;28;88532;-67
2023/02/15 01:52:56;;;;;;;87.53;10.70;;;2.80;97.90;;;;;;4977364;28;87168;-69
2023/02/15 01:55:26;;;;;;;63.58;10.88;;;2.70;97.80;;;;;;4975561;28;90262;-68
2023/02/15 01:57:52;;;;;;;154.60;12.18;;;2.70;97.70;;;;;;4975179;28;87882;-66
2023/02/15 02:00:19;;;;;;;63.15;10.48;;;2.70;97.60;;;;;;4977198;28;87325;-67
2023/02/15 02:02:49;;;;;;;69.57;10.77;;;2.60;98.10;;;;;;4976560;28;87539;-66
2023/02/15 02:05:15;;;;;;;96.72;11.93;;;2.70;98.00;;;;;;4969694;28;87690;-67
2023/02/15 02:07:44;;;;;;;125.15;11.85;;;2.70;97.80;;;;;;4984254;28;87482;-70
2023/02/15 02:10:17;;;;;;;106.88;12.00;;;2.70;98.10;;;;;;4976306;28;87715;-68
2023/02/15 02:12:47;;;;;;;81.57;11.18;;;2.70;98.10;;;;;;4974971;28;87202;-68
2023/02/15 02:15:13;;;;;;;84.97;12.35;;;2.70;98.30;;;;;;4975866;28;89828;-70
2023/02/15 02:18:12;;;;;;;102.75;11.38;;;2.80;98.30;;;;;;4975276;28;88221;-69
2023/02/15 02:20:53;;;;;;;112.68;13.13;;;2.80;98.10;;;;;;4978811;28;87478;-68
2023/02/15 02:23:36;;;;;;;45.45;11.80;;;2.90;98.20;;;;;;4980710;28;87549;-70
2023/02/15 02:26:20;;;;;;;60.90;12.13;;;2.90;98.30;;;;;;4979543;28;87552;-69
2023/02/15 02:29:16;;;;;;;61.45;11.85;;;3.00;98.20;;;;;;4979308;28;88445;-69
2023/02/15 02:31:47;;;;;;;62.88;12.13;;;3.00;98.10;;;;;;4979041;28;87180;-70
2023/02/15 02:35:11;;;;;;;42.17;11.18;;;2.90;98.20;;;;;;4988898;28;86643;-69
2023/02/15 02:37:58;;;;;;;94.55;12.70;;;2.90;98.40;;;;;;4956123;28;88194;-69
2023/02/15 02:40:41;;;;;;;47.13;10.93;;;2.90;98.50;;;;;;4958319;28;87999;-69
2023/02/15 02:43:48;;;;;;;51.72;11.63;;;2.90;98.70;;;;;;4975059;28;88226;-69
2023/02/15 02:46:20;;;;;;;71.22;11.77;;;2.90;98.30;;;;;;4978755;28;87432;-69
2023/02/15 02:48:46;;;;;;;45.00;10.43;;;2.80;98.50;;;;;;4999404;28;88271;-69
2023/02/15 02:51:13;;;;;;;51.78;11.70;;;2.80;99.00;;;;;;4982569;28;89131;-69
2023/02/15 02:53:40;;;;;;;43.97;11.55;;;2.80;99.00;;;;;;4989628;28;87770;-69
2023/02/15 02:56:18;;;;;;;89.70;13.00;;;2.90;98.80;;;;;;4977712;28;87715;-68
2023/02/15 02:58:59;;;;;;;93.90;12.25;;;2.90;98.70;;;;;;4977197;28;91245;-69
2023/02/15 03:01:34;;;;;;;56.03;11.88;;;2.80;99.00;;;;;;4979105;28;87177;-69
2023/02/15 03:04:08;;;;;;;110.35;11.90;;;2.90;99.00;;;;;;4979475;28;88207;-70
2023/02/15 03:06:42;;;;;;;85.72;10.90;;;2.90;98.60;;;;;;4979828;28;87156;-70
2023/02/15 03:09:44;;;;;;;185.60;14.35;;;2.90;98.10;;;;;;4984918;28;89768;-70
2023/02/15 03:12:23;;;;;;;70.82;11.60;;;2.90;98.30;;;;;;4978408;28;89250;-70
2023/02/15 03:14:52;;;;;;;133.82;11.88;;;2.80;98.80;;;;;;4967676;28;87310;-69
2023/02/15 03:17:22;;;;;;;69.55;10.65;;;2.80;97.40;;;;;;4987914;28;88076;-69
2023/02/15 03:19:52;;;;;;;47.38;11.68;;;2.70;97.60;;;;;;4999266;28;88228;-69
2023/02/15 03:22:25;;;;;;;58.90;10.15;;;2.70;98.20;;;;;;4998769;28;87393;-70
2023/02/15 03:25:04;;;;;;;49.88;9.70;;;2.70;97.70;;;;;;4986233;28;87871;-69
2023/02/15 03:27:40;;;;;;;164.60;11.15;;;2.60;97.60;;;;;;4983713;28;86692;-69
2023/02/15 03:30:08;;;;;;;59.55;9.05;;;2.60;97.00;;;;;;4978991;28;87968;-69
2023/02/15 03:32:35;;;;;;;57.30;9.15;;;2.40;97.10;;;;;;4979315;28;87944;-69
2023/02/15 03:35:01;;;;;;;92.25;10.38;;;2.40;97.60;;;;;;4978886;28;88120;-69
2023/02/15 03:37:40;;;;;;;38.05;9.52;;;2.30;97.80;;;;;;4986502;28;87044;-69
2023/02/15 03:43:30;;;;;;;65.68;9.75;;;2.20;98.20;;;;;;4980218;28;87655;-68
2023/02/15 03:46:00;;;;;;;61.90;10.90;;;2.20;98.60;;;;;;4978550;28;87093;-68
2023/02/15 03:48:30;;;;;;;46.67;10.13;;;2.10;98.90;;;;;;4987036;28;87525;-68
2023/02/15 03:53:48;;;;;;;78.72;11.30;;;2.10;99.30;;;;;;4999356;28;87882;-70
2023/02/15 03:56:13;;;;;;;41.20;10.48;;;2.10;99.70;;;;;;4988772;28;87516;-68
2023/02/15 04:01:57;;;;;;;49.35;10.43;;;2.30;99.90;;;;;;4978165;28;88386;-68
2023/02/15 04:04:33;;;;;;;46.63;10.35;;;2.30;99.40;;;;;;4983972;28;88470;-68
2023/02/15 04:07:00;;;;;;;56.20;10.45;;;2.30;99.40;;;;;;4991432;28;87315;-67
2023/02/15 04:12:10;;;;;;;55.45;9.93;;;2.40;99.10;;;;;;4979026;28;87399;-68
2023/02/15 04:17:20;;;;;;;132.35;11.50;;;2.40;98.70;;;;;;4987489;28;87385;-68
2023/02/15 04:25:13;;;;;;;110.97;9.55;;;2.00;99.10;;;;;;4978310;28;88339;-69
2023/02/15 04:27:41;;;;;;;74.10;10.27;;;2.00;99.80;;;;;;4977913;28;88697;-68
2023/02/15 04:30:08;;;;;;;120.25;11.90;;;2.00;99.90;;;;;;4977740;28;87467;-68
2023/02/15 04:32:35;;;;;;;103.07;12.05;;;2.00;99.80;;;;;;4985029;28;89761;-68
2023/02/15 04:35:01;;;;;;;75.72;10.30;;;2.00;99.80;;;;;;4981522;28;87455;-68
2023/02/15 04:37:27;;;;;;;135.82;11.30;;;2.00;99.90;;;;;;4977534;28;87137;-68
2023/02/15 04:39:53;;;;;;;146.02;10.90;;;1.90;99.90;;;;;;4978623;28;87352;-70
2023/02/15 04:42:19;;;;;;;143.45;11.73;;;1.90;99.90;;;;;;4976746;28;87707;-68
2023/02/15 04:44:45;;;;;;;101.63;11.20;;;1.90;99.90;;;;;;4988750;28;87923;-70
2023/02/15 04:47:11;;;;;;;146.48;11.30;;;1.90;99.90;;;;;;4985780;28;87221;-69
2023/02/15 04:49:37;;;;;;;153.75;11.57;;;1.80;99.90;;;;;;4978121;28;87201;-68
2023/02/15 04:52:02;;;;;;;137.55;11.25;;;1.80;99.90;;;;;;4988418;28;88487;-69
2023/02/15 04:54:28;;;;;;;90.68;10.38;;;1.80;99.90;;;;;;4984898;28;89498;-68
2023/02/15 04:56:54;;;;;;;64.53;9.88;;;1.80;99.90;;;;;;4979580;28;87696;-68
2023/02/15 04:59:19;;;;;;;50.20;9.77;;;1.90;99.90;;;;;;4975446;28;87608;-69
2023/02/15 05:01:45;;;;;;;45.13;9.40;;;1.90;99.90;;;;;;4975618;28;87449;-69
2023/02/15 05:04:11;;;;;;;33.85;8.45;;;2.00;99.90;;;;;;4978007;28;87987;-69
2023/02/15 05:06:36;;;;;;;34.08;8.38;;;2.00;99.90;;;;;;4978039;28;87491;-69
2023/02/15 05:09:02;;;;;;;46.97;9.32;;;2.10;99.70;;;;;;4984476;28;86447;-71
2023/02/15 05:11:28;;;;;;;37.28;8.65;;;2.10;99.40;;;;;;4977933;28;88087;-69
2023/02/15 05:13:53;;;;;;;76.35;10.07;;;2.10;99.10;;;;;;4986551;28;88007;-69
2023/02/15 05:16:19;;;;;;;73.40;9.60;;;2.10;98.60;;;;;;4979523;28;88107;-68
2023/02/15 05:18:45;;;;;;;49.72;8.82;;;2.10;99.10;;;;;;4978627;28;87496;-70
2023/02/15 05:21:10;;;;;;;41.17;10.00;;;2.20;98.40;;;;;;4977436;28;88111;-68
2023/02/15 05:23:36;;;;;;;78.85;10.20;;;2.10;98.80;;;;;;4977519;28;87943;-70
2023/02/15 05:28:46;;;;;;;37.88;8.80;;;2.00;98.50;;;;;;4978553;28;87496;-70
2023/02/15 05:31:19;;;;;;;31.33;9.05;;;1.90;99.20;;;;;;4984627;28;87709;-70
2023/02/15 05:33:45;;;;;;;29.88;8.80;;;1.90;99.60;;;;;;4988892;28;89674;-70
2023/02/15 05:36:11;;;;;;;66.93;8.98;;;2.00;98.60;;;;;;4976811;28;87348;-70
2023/02/15 05:38:38;;;;;;;82.28;8.68;;;2.00;98.30;;;;;;4985840;28;87493;-69
2023/02/15 05:41:05;;;;;;;82.78;8.82;;;1.90;98.30;;;;;;4981831;28;89697;-69
2023/02/15 05:43:31;;;;;;;79.63;8.95;;;1.80;98.10;;;;;;4980225;28;89005;-69
2023/02/15 05:45:57;;;;;;;80.40;9.07;;;1.70;98.20;;;;;;4995797;28;87257;-69
2023/02/15 05:48:24;;;;;;;51.85;8.88;;;1.60;98.70;;;;;;4997880;28;87140;-70
2023/02/15 05:51:03;;;;;;;21.42;7.57;;;1.60;99.20;;;;;;4979520;28;89135;-70
2023/02/15 05:53:31;;;;;;;41.28;8.18;;;1.60;99.10;;;;;;4978158;28;87941;-70
2023/02/15 05:56:00;;;;;;;59.92;9.07;;;1.60;99.10;;;;;;4982848;28;87377;-70
2023/02/15 05:58:26;;;;;;;35.30;8.40;;;1.50;98.70;;;;;;4986053;28;86550;-70
2023/02/15 06:00:53;;;;;;;36.25;7.75;;;1.40;99.20;;;;;;4976388;28;89235;-70
2023/02/15 06:03:18;;;;;;;58.78;8.90;;;1.40;99.40;;;;;;4977880;28;87537;-70
2023/02/15 06:05:44;;;;;;;63.55;9.40;;;1.40;99.30;;;;;;4984352;28;89711;-70
2023/02/15 06:08:10;;;;;;;29.08;8.32;;;1.40;99.60;;;;;;4983673;28;87742;-70
2023/02/15 06:10:35;;;;;;;51.05;8.38;;;1.40;99.40;;;;;;4983894;28;88296;-70
2023/02/15 06:13:01;;;;;;;31.58;7.93;;;1.40;99.40;;;;;;4986754;28;88365;-69
2023/02/15 06:15:26;;;;;;;38.97;7.32;;;1.40;99.20;;;;;;4987558;28;88696;-69
2023/02/15 06:17:52;;;;;;;25.27;7.72;;;1.40;98.90;;;;;;4985269;28;87018;-69
2023/02/15 06:20:18;;;;;;;45.40;8.77;;;1.30;98.80;;;;;;4993047;28;87669;-69
2023/02/15 06:22:43;;;;;;;36.25;7.78;;;1.20;99.10;;;;;;5003659;28;87940;-69
2023/02/15 06:25:10;;;;;;;35.63;7.65;;;1.20;99.80;;;;;;4990026;28;87437;-70
2023/02/15 06:27:37;;;;;;;19.23;7.82;;;1.20;99.60;;;;;;4986332;28;87477;-70
2023/02/15 06:30:05;;;;;;;23.15;7.70;;;1.20;99.60;;;;;;4983924;28;89151;-69
2023/02/15 06:32:31;;;;;;;39.67;7.15;;;1.30;99.60;;;;;;4974044;28;87481;-70
2023/02/15 06:34:57;;;;;;;19.95;7.10;;;1.30;98.80;;;;;;4989723;28;87369;-70
2023/02/15 06:37:22;;;;;;;48.15;8.27;;;1.30;99.20;;;;;;4984196;28;87676;-70
2023/02/15 06:39:48;;;;;;;19.90;6.40;;;1.40;98.40;;;;;;4982912;28;87749;-70
2023/02/15 06:42:14;;;;;;;136.60;7.90;;;1.20;98.20;;;;;;4984019;28;88033;-70
2023/02/15 06:44:39;;;;;;;46.13;7.82;;;1.20;97.80;;;;;;4982366;28;87516;-70
2023/02/15 06:47:05;;;;;;;34.00;7.88;;;1.20;98.30;;;;;;4980141;28;88160;-70
2023/02/15 06:49:31;;;;;;;45.72;7.68;;;1.20;98.40;;;;;;4977942;28;89512;-70
2023/02/15 06:51:56;;;;;;;31.30;8.43;;;1.10;98.60;;;;;;4977893;28;87481;-70
2023/02/15 06:54:22;;;;;;;40.67;7.35;;;1.10;98.60;;;;;;4982356;28;88021;-70
2023/02/15 06:56:48;;;;;;;34.90;7.40;;;1.10;98.70;;;;;;4982716;28;88212;-70
2023/02/15 06:59:13;;;;;;;18.08;7.10;;;1.10;98.50;;;;;;4987621;28;88128;-69
2023/02/15 07:01:39;;;;;;;23.20;7.97;;;1.20;99.00;;;;;;4980689;28;87542;-69
2023/02/15 07:04:05;;;;;;;27.23;7.80;;;1.20;98.50;;;;;;4975666;28;89023;-70
2023/02/15 07:06:35;;;;;;;28.05;7.70;;;1.30;98.60;;;;;;4983718;28;87253;-69
2023/02/15 07:09:01;;;;;;;28.08;7.70;;;1.30;98.30;;;;;;4977846;28;88149;-69
2023/02/15 07:14:12;;;;;;;24.40;7.55;;;1.40;98.20;;;;;;4979764;28;87963;-69
2023/02/15 07:16:38;;;;;;;27.90;7.15;;;1.30;98.00;;;;;;4978500;28;87641;-69
2023/02/15 07:19:04;;;;;;;55.83;9.70;;;1.30;97.60;;;;;;4977198;28;89520;-69
2023/02/15 07:21:29;;;;;;;21.23;7.40;;;1.20;98.10;;;;;;4978944;28;88143;-69
2023/02/15 07:23:58;;;;;;;21.33;7.05;;;1.30;98.00;;;;;;4979616;28;87544;-69
2023/02/15 07:26:24;;;;;;;21.90;6.63;;;1.20;97.50;;;;;;4974899;28;87757;-69
2023/02/15 07:28:50;;;;;;;24.30;7.63;;;1.20;97.80;;;;;;4985565;28;88422;-69
2023/02/15 07:31:16;;;;;;;33.35;7.65;;;1.10;98.00;;;;;;4978733;28;87432;-69
2023/02/15 07:33:42;;;;;;;38.38;7.35;;;1.20;98.00;;;;;;4978313;28;87097;-70
2023/02/15 07:36:11;;;;;;;24.35;7.88;;;1.30;97.90;;;;;;4987306;28;87336;-69
2023/02/15 07:38:39;;;;;;;91.88;9.85;;;1.50;97.90;;;;;;4983612;28;87626;-69
2023/02/15 07:41:10;;;;;;;30.23;8.25;;;1.40;97.40;;;;;;4976913;28;87604;-69
2023/02/15 07:43:39;;;;;;;20.95;7.47;;;1.50;97.50;;;;;;4977180;28;88435;-70
2023/02/15 07:46:07;;;;;;;28.05;8.02;;;1.50;97.90;;;;;;4978260;28;87457;-69
2023/02/15 07:48:34;;;;;;;31.08;7.63;;;1.60;97.90;;;;;;4966371;28;88283;-69
2023/02/15 07:51:01;;;;;;;60.20;8.98;;;1.60;98.00;;;;;;4973827;28;87821;-69
2023/02/15 07:53:28;;;;;;;22.58;7.93;;;1.70;97.60;;;;;;4970868;28;87437;-69
2023/02/15 07:55:54;;;;;;;31.85;8.02;;;1.90;97.60;;;;;;4973310;28;87305;-69
2023/02/15 07:58:21;;;;;;;69.45;9.13;;;1.90;96.90;;;;;;4975581;28;87538;-69
2023/02/15 08:01:01;;;;;;;28.52;7.93;;;2.00;96.40;;;;;;4987780;28;88288;-69
2023/02/15 08:03:28;;;;;;;100.47;9.70;;;2.00;96.10;;;;;;4983919;28;87925;-69
2023/02/15 08:05:58;;;;;;;80.35;10.30;;;2.00;96.10;;;;;;4974255;28;87405;-70
2023/02/15 08:08:30;;;;;;;41.55;7.50;;;2.10;96.00;;;;;;4972180;28;89105;-69
2023/02/15 08:13:55;;;;;;;32.35;7.88;;;2.30;95.90;;;;;;4974176;28;89250;-67
2023/02/15 08:16:25;;;;;;;18.33;7.97;;;2.40;95.70;;;;;;4978602;28;87946;-68
2023/02/15 08:18:52;;;;;;;39.92;7.65;;;2.50;95.50;;;;;;4979245;28;87440;-69
2023/02/15 08:21:19;;;;;;;38.03;8.43;;;2.60;94.90;;;;;;4975710;28;88851;-64
2023/02/15 08:23:45;;;;;;;54.05;9.10;;;2.40;96.30;;;;;;4982613;28;87432;-68
2023/02/15 08:26:10;;;;;;;38.55;8.32;;;2.50;95.80;;;;;;4976670;28;86644;-68
2023/02/15 08:28:36;;;;;;;52.35;8.00;;;2.60;94.60;;;;;;4975790;28;88561;-68
2023/02/15 08:31:06;;;;;;;106.32;8.93;;;2.70;95.00;;;;;;4976174;28;87733;-68
2023/02/15 08:33:32;;;;;;;30.50;7.00;;;2.60;93.70;;;;;;4972247;28;88180;-68
2023/02/15 08:36:22;;;;;;;70.38;8.00;;;2.60;93.90;;;;;;4991060;28;87716;-68
2023/02/15 08:38:48;;;;;;;114.28;9.18;;;2.50;93.90;;;;;;4995013;28;88795;-68
2023/02/15 08:41:30;;;;;;;55.22;8.30;;;2.40;93.90;;;;;;4991473;28;87630;-68
2023/02/15 08:44:01;;;;;;;77.05;8.68;;;2.40;94.40;;;;;;4965863;28;87777;-68
2023/02/15 08:46:29;;;;;;;37.58;8.35;;;2.50;94.30;;;;;;4978771;28;87090;-68
2023/02/15 08:48:55;;;;;;;53.40;8.57;;;2.50;94.20;;;;;;4984652;28;87103;-67
2023/02/15 08:51:23;;;;;;;57.03;8.85;;;2.70;93.80;;;;;;4983023;28;88393;-67
2023/02/15 08:53:54;;;;;;;32.45;8.38;;;2.60;93.70;;;;;;4987640;28;87402;-67
2023/02/15 08:56:24;;;;;;;24.90;8.35;;;2.80;94.60;;;;;;4984547;28;89169;-67
2023/02/15 08:58:50;;;;;;;27.48;8.23;;;3.00;94.30;;;;;;4995313;28;88524;-68
2023/02/15 09:01:22;;;;;;;51.13;9.25;;;3.20;93.60;;;;;;4971424;28;88225;-67
2023/02/15 09:03:52;;;;;;;44.42;8.27;;;3.20;92.30;;;;;;4975657;28;87805;-68
2023/02/15 09:06:19;;;;;;;37.20;10.27;;;3.10;92.90;;;;;;4969540;28;88283;-68
2023/02/15 09:08:45;;;;;;;41.97;8.63;;;3.00;93.20;;;;;;4962340;28;87690;-68
2023/02/15 09:11:16;;;;;;;54.80;9.35;;;3.10;92.90;;;;;;4983106;28;87742;-68
2023/02/15 09:13:42;;;;;;;29.55;8.48;;;3.10;92.60;;;;;;4990086;28;87483;-67
2023/02/15 09:16:10;;;;;;;24.80;7.90;;;3.20;92.70;;;;;;4984667;28;86724;-68
2023/02/15 09:18:39;;;;;;;28.92;8.38;;;3.30;92.50;;;;;;4977287;28;88182;-67
2023/02/15 09:21:13;;;;;;;31.70;8.90;;;3.40;92.40;;;;;;4977761;28;87944;-67
2023/02/15 09:23:40;;;;;;;46.33;9.05;;;3.40;92.40;;;;;;4975193;28;88180;-68
2023/02/15 09:26:16;;;;;;;40.03;9.23;;;3.50;91.90;;;;;;4977754;28;89308;-68
2023/02/15 09:28:42;;;;;;;34.33;8.73;;;3.50;92.10;;;;;;4979750;28;88110;-68
2023/02/15 09:31:17;;;;;;;28.70;8.63;;;3.70;92.20;;;;;;4977631;28;89563;-68
2023/02/15 09:33:44;;;;;;;21.98;7.85;;;3.90;92.00;;;;;;4974170;28;87160;-67
2023/02/15 09:36:22;;;;;;;22.20;7.97;;;3.90;91.60;;;;;;4971002;28;88067;-68
2023/02/15 09:38:58;;;;;;;29.83;8.85;;;4.00;91.90;;;;;;4972321;28;88658;-68
2023/02/15 09:41:45;;;;;;;33.90;7.93;;;4.00;91.90;;;;;;4975500;28;87892;-67
2023/02/15 09:44:48;;;;;;;28.35;7.85;;;4.00;91.50;;;;;;4980917;28;87590;-68
2023/02/15 09:47:13;;;;;;;20.58;7.40;;;4.10;91.60;;;;;;4971097;28;87358;-68
2023/02/15 09:49:51;;;;;;;22.42;8.15;;;4.20;91.10;;;;;;4975683;28;89688;-68
2023/02/15 09:52:35;;;;;;;20.80;8.40;;;4.30;90.70;;;;;;4975935;28;88262;-68
2023/02/15 09:55:01;;;;;;;22.77;7.47;;;4.50;90.50;;;;;;4975195;28;88171;-67
2023/02/15 09:57:33;;;;;;;25.85;8.10;;;4.70;90.20;;;;;;4969361;28;88567;-67
2023/02/15 10:00:18;;;;;;;24.63;7.75;;;4.70;89.50;;;;;;4970958;28;88951;-68
2023/02/15 10:03:22;;;;;;;26.73;8.27;;;4.90;89.90;;;;;;4977692;28;87806;-68
2023/02/15 10:06:17;;;;;;;23.25;7.38;;;5.00;88.30;;;;;;4966356;28;88000;-67
2023/02/15 10:09:26;;;;;;;20.17;7.28;;;4.90;87.10;;;;;;4975979;28;86787;-67
2023/02/15 10:12:22;;;;;;;23.98;7.85;;;4.90;87.70;;;;;;4974029;28;87648;-68
2023/02/15 10:14:53;;;;;;;20.23;8.27;;;5.10;86.80;;;;;;4964784;28;88093;-67
2023/02/15 10:17:44;;;;;;;24.05;7.97;;;5.10;89.20;;;;;;4971238;28;88082;-68
2023/02/15 10:20:43;;;;;;;22.08;7.50;;;5.20;87.00;;;;;;4966750;28;88367;-68
2023/02/15 10:23:26;;;;;;;17.17;7.65;;;5.30;86.10;;;;;;4972712;28;88633;-68
2023/02/15 10:26:18;;;;;;;19.55;7.57;;;5.30;87.60;;;;;;4974705;28;88010;-68
2023/02/15 10:29:08;;;;;;;18.90;7.70;;;5.50;86.70;;;;;;4967392;28;87215;-68
2023/02/15 10:31:52;;;;;;;17.88;7.95;;;5.70;85.20;;;;;;4970980;28;87260;-68
2023/02/15 10:34:20;;;;;;;23.38;9.57;;;5.90;84.70;;;;;;4977316;28;88723;-68
2023/02/15 10:37:04;;;;;;;20.48;8.40;;;6.00;84.10;;;;;;4974372;28;88199;-68
2023/02/15 10:39:51;;;;;;;20.63;8.77;;;6.00;84.90;;;;;;4977238;28;87645;-68
2023/02/15 10:42:26;;;;;;;18.67;8.63;;;5.90;84.00;;;;;;4966953;28;87669;-67
2023/02/15 10:45:07;;;;;;;22.55;8.70;;;6.00;83.80;;;;;;4980735;28;89093;-68
2023/02/15 10:47:52;;;;;;;18.95;8.25;;;6.10;84.00;;;;;;4972423;28;88096;-66
2023/02/15 10:50:47;;;;;;;18.80;8.00;;;6.20;83.90;;;;;;4973330;28;88307;-67
2023/02/15 10:53:41;;;;;;;17.48;8.27;;;6.40;83.30;;;;;;4970568;28;87535;-67
2023/02/15 10:56:31;;;;;;;21.58;9.20;;;6.50;83.10;;;;;;4982602;28;88615;-71
2023/02/15 10:59:04;;;;;;;20.35;9.45;;;6.70;82.40;;;;;;4990304;28;88393;-69
2023/02/15 11:01:51;;;;;;;18.13;8.27;;;6.90;81.60;;;;;;4996040;28;87652;-71
2023/02/15 11:04:29;;;;;;;21.75;8.65;;;6.90;81.10;;;;;;4976910;28;87137;-66
2023/02/15 11:06:59;;;;;;;18.15;7.97;;;6.90;80.40;;;;;;4969919;28;88937;-66
2023/02/15 11:09:33;;;;;;;18.45;8.40;;;6.90;81.70;;;;;;4976122;28;87533;-69
2023/02/15 11:12:00;;;;;;;16.40;7.40;;;6.70;82.00;;;;;;4976519;28;88294;-69
2023/02/15 11:14:55;;;;;;;16.75;7.95;;;6.70;82.70;;;;;;4980538;28;87628;-69
2023/02/15 11:17:30;;;;;;;17.10;7.88;;;6.70;83.00;;;;;;4978292;28;88667;-68
2023/02/15 11:20:16;;;;;;;18.98;7.88;;;6.90;83.20;;;;;;4977794;28;90418;-69
2023/02/15 11:22:42;;;;;;;18.50;8.25;;;7.00;82.90;;;;;;4977840;28;87564;-69
2023/02/15 11:25:33;;;;;;;21.88;8.50;;;7.20;81.80;;;;;;4979881;28;87443;-68
2023/02/15 11:28:04;;;;;;;19.25;7.93;;;7.40;80.80;;;;;;4974577;28;88076;-68
2023/02/15 11:30:46;;;;;;;22.23;8.27;;;7.30;81.10;;;;;;4981009;28;87701;-69
2023/02/15 11:33:22;;;;;;;18.17;7.88;;;7.40;79.70;;;;;;4974857;28;87358;-68
2023/02/15 11:36:04;;;;;;;21.73;8.05;;;7.40;80.60;;;;;;4975151;28;88142;-68
2023/02/15 11:38:34;;;;;;;20.92;8.32;;;7.30;79.40;;;;;;4973864;28;89104;-68
2023/02/15 11:41:09;;;;;;;21.45;7.97;;;7.30;81.00;;;;;;4993585;28;88317;-68
2023/02/15 11:43:51;;;;;;;22.60;8.23;;;7.40;79.80;;;;;;4982868;28;87531;-68
2023/02/15 11:46:18;;;;;;;18.65;8.25;;;7.40;80.50;;;;;;4980619;28;87928;-68
2023/02/15 11:48:44;;;;;;;22.25;8.10;;;7.30;80.20;;;;;;4976977;28;88587;-68
2023/02/15 11:51:15;;;;;;;17.85;8.05;;;7.30;80.00;;;;;;4981051;28;87979;-68
2023/02/15 11:53:43;;;;;;;19.45;8.32;;;7.20;80.20;;;;;;4979793;28;87503;-68
2023/02/15 11:56:22;;;;;;;21.52;9.75;;;7.10;80.00;;;;;;4981959;28;86710;-68
2023/02/15 11:59:04;;;;;;;17.00;7.35;;;7.00;81.00;;;;;;4985708;28;90841;-68
2023/02/15 12:01:34;;;;;;;19.58;8.38;;;6.90;80.60;;;;;;4981428;28;88007;-68
2023/02/15 12:04:21;;;;;;;20.35;8.60;;;7.00;81.10;;;;;;4978014;28;88240;-68
2023/02/15 12:07:12;;;;;;;19.70;7.95;;;7.00;82.20;;;;;;4973641;28;89187;-69
2023/02/15 12:10:11;;;;;;;17.38;7.38;;;7.00;81.50;;;;;;4970558;28;88126;-68
2023/02/15 12:12:37;;;;;;;19.63;8.27;;;6.90;81.70;;;;;;4978684;28;90561;-69
2023/02/15 12:15:09;;;;;;;27.02;10.95;;;6.60;82.40;;;;;;4978823;28;87303;-69
2023/02/15 12:17:53;;;;;;;19.27;8.15;;;6.70;83.80;;;;;;4979663;28;87175;-68
2023/02/15 12:20:18;;;;;;;24.77;9.00;;;6.60;83.10;;;;;;4971879;28;87559;-68
2023/02/15 12:23:12;;;;;;;20.83;8.77;;;6.60;83.90;;;;;;4978047;28;87409;-69
2023/02/15 12:25:54;;;;;;;19.38;7.95;;;6.60;84.80;;;;;;4976424;28;88450;-68
2023/02/15 12:28:40;;;;;;;22.42;8.93;;;6.60;83.50;;;;;;4978213;28;89969;-69
2023/02/15 12:31:34;;;;;;;19.58;8.20;;;6.60;84.10;;;;;;4975695;28;88614;-68
2023/02/15 12:34:02;;;;;;;22.73;9.50;;;6.70;82.80;;;;;;4962896;28;88885;-69
2023/02/15 12:36:45;;;;;;;23.27;8.75;;;6.80;83.30;;;;;;4974983;28;87510;-68
2023/02/15 12:39:13;;;;;;;18.83;7.82;;;6.80;83.40;;;;;;4970298;28;89065;-68
2023/02/15 12:41:54;;;;;;;18.52;7.90;;;6.70;83.80;;;;;;4970463;28;88504;-68
2023/02/15 12:44:23;;;;;;;23.48;8.90;;;6.60;84.90;;;;;;4971623;28;87943;-68
2023/02/15 12:47:17;;;;;;;21.75;8.10;;;6.50;85.20;;;;;;4971454;28;87370;-68
2023/02/15 12:49:44;;;;;;;19.33;7.93;;;6.50;85.50;;;;;;4977122;28;86608;-68
2023/02/15 12:52:21;;;;;;;20.08;8.77;;;6.60;85.90;;;;;;4973250;28;88659;-68
2023/02/15 12:54:48;;;;;;;26.67;10.10;;;6.80;84.90;;;;;;4993199;28;87684;-68
2023/02/15 12:57:30;;;;;;;22.08;8.90;;;7.00;83.80;;;;;;4995167;28;88385;-68
2023/02/15 13:00:18;;;;;;;19.33;8.30;;;7.20;83.50;;;;;;4980446;28;87301;-69
2023/02/15 13:02:48;;;;;;;20.23;8.25;;;7.20;83.00;;;;;;4965605;28;90456;-68
2023/02/15 13:05:39;;;;;;;22.85;8.55;;;7.10;83.50;;;;;;4976645;28;90181;-68
2023/02/15 13:08:20;;;;;;;19.88;8.65;;;7.20;83.60;;;;;;4972460;28;87985;-69
2023/02/15 13:10:58;;;;;;;21.40;8.40;;;7.30;83.40;;;;;;4972941;28;87521;-68
2023/02/15 13:13:33;;;;;;;20.77;8.55;;;7.30;83.60;;;;;;4975898;28;87364;-68
2023/02/15 13:16:09;;;;;;;22.13;8.27;;;7.40;81.60;;;;;;4975517;28;87715;-69
2023/02/15 13:18:42;;;;;;;19.85;8.95;;;7.40;81.70;;;;;;4977054;28;88784;-68
2023/02/15 13:21:27;;;;;;;23.20;9.40;;;7.50;82.40;;;;;;4974774;28;87467;-68
2023/02/15 13:24:00;;;;;;;22.88;9.50;;;7.70;81.00;;;;;;4973061;28;88973;-68
2023/02/15 13:26:29;;;;;;;20.30;8.98;;;7.80;80.40;;;;;;4972372;28;88259;-68
2023/02/15 13:29:12;;;;;;;22.27;9.70;;;8.00;81.70;;;;;;4985289;28;87883;-68
2023/02/15 13:31:39;;;;;;;20.23;8.77;;;8.10;79.80;;;;;;4967607;28;87465;-68
2023/02/15 13:34:26;;;;;;;19.05;8.60;;;8.10;80.00;;;;;;4976920;28;87736;-68
2023/02/15 13:37:05;;;;;;;19.52;8.13;;;7.80;79.70;;;;;;4973220;28;87910;-68
2023/02/15 13:39:56;;;;;;;18.88;7.80;;;7.60;79.50;;;;;;4965444;28;87322;-68